Flight Track Log - Related Links

Times and Time Zones

All times are in EDT time to prevent confusion due to time zone crossing. See the SWA2624 flight status page for this flight to view local times or setup timezone preferences in your user account.

Time Position Orientation Groundspeed Altitude Reporting Facility
EDT Latitude Longitude Course Direction KTS MPH feet Rate Location/Type
Mon 11:26:06 PM 34.9861 -106.7031 261° West 220 253 8,700  Level Albuquerque Center
Mon 11:26:38 PM 34.9944 -106.7314 290° West 219 252 9,300 2,516 Climbing Albuquerque Center
Mon 11:27:39 PM 35.0261 -106.8269 292° West 287 330 12,600 3,951 Climbing Albuquerque Center
Mon 11:28:41 PM 35.0639 -106.9450 291° West 342 394 17,400 4,780 Climbing Albuquerque Center
Mon 11:29:42 PM 35.1081 -107.0700 293° West 357 411 22,400 4,082 Climbing Albuquerque Center
Mon 11:30:43 PM 35.1458 -107.1822 292° West 372 428 25,700 2,780 Climbing Albuquerque Center
Mon 11:31:45 PM 35.1744 -107.3014 286° West 388 447 28,100 2,098 Climbing Albuquerque Center
Mon 11:32:46 PM 35.1942 -107.4347 280° West 396 456 30,000 1,180 Climbing Albuquerque Center
Mon 11:33:47 PM 35.2175 -107.5858 281° West 406 467 30,500 2,000 Climbing Albuquerque Center
Mon 11:34:49 PM 35.2422 -107.7361 281° West 404 465 34,100 2,976 Climbing Albuquerque Center
Mon 11:35:50 PM 35.2600 -107.8603 280° West 392 451 36,600 2,262 Climbing Albuquerque Center
Mon 11:36:51 PM 35.2686 -107.9842 275° West 383 441 38,700 1,659 Climbing Albuquerque Center
Mon 11:37:53 PM 35.2828 -108.1292 277° West 384 442 40,000 634 Climbing Albuquerque Center
Mon 11:38:54 PM 35.2936 -108.2539 276° West 384 442 40,000  Level Albuquerque Center
Mon 11:39:55 PM 35.3056 -108.3994 276° West 385 443 40,000  Level Albuquerque Center
Mon 11:40:56 PM 35.3158 -108.5244 276° West 385 443 40,000  Level Albuquerque Center
Mon 11:41:58 PM 35.3258 -108.6506 276° West 387 445 40,000  Level Albuquerque Center
Mon 11:42:59 PM 35.3386 -108.7986 276° West 389 448 40,000  Level Albuquerque Center
Mon 11:44:00 PM 35.3492 -108.9244 276° West 389 448 40,000  Level Albuquerque Center
Mon 11:45:02 PM 35.3592 -109.0506 276° West 387 445 40,000  Level Albuquerque Center
Mon 11:46:03 PM 35.3714 -109.1978 276° West 388 447 40,000  Level Albuquerque Center
Mon 11:47:04 PM 35.3803 -109.3253 275° West 390 449 40,000  Level Albuquerque Center
Mon 11:48:05 PM 35.3903 -109.4514 276° West 389 448 40,000  Level Albuquerque Center
Mon 11:49:07 PM 35.4011 -109.5972 275° West 386 444 40,000  Level Albuquerque Center
Mon 11:50:08 PM 35.4103 -109.7203 275° West 380 437 40,000  Level Albuquerque Center
Mon 11:51:09 PM 35.4194 -109.8653 274° West 379 436 40,000  Level Albuquerque Center
Mon 11:52:10 PM 35.4275 -109.9889 275° West 380 437 40,000  Level Albuquerque Center
Mon 11:53:11 PM 35.4367 -110.1128 275° West 381 438 40,000  Level Albuquerque Center
Mon 11:54:13 PM 35.4431 -110.2575 273° West 382 440 40,000 -488 Level Albuquerque Center
Mon 11:55:14 PM 35.4514 -110.3825 275° West 384 442 39,000 -934 Descending Albuquerque Center
Mon 11:56:15 PM 35.4617 -110.5106 276° West 390 449 38,100 -492 Descending Albuquerque Center
Mon 11:57:16 PM 35.4711 -110.6553 275° West 386 444 38,000 -590 Descending Albuquerque Center
Mon 11:58:17 PM 35.4781 -110.7789 274° West 382 440 36,900 -1,426 Descending Albuquerque Center
Mon 11:59:18 PM 35.4881 -110.9283 275° West 390 449 35,100 -1,623 Descending Albuquerque Center
Tue 12:00:19 AM 35.4953 -111.0564 274° West 394 453 33,600 -1,525 Descending Albuquerque Center
Tue 12:01:20 AM 35.5047 -111.1861 275° West 396 456 32,000 -1,721 Descending Albuquerque Center
Tue 12:02:21 AM 35.5122 -111.3361 274° West 397 457 30,100 -976 Descending Albuquerque Center
Tue 12:03:23 AM 35.5222 -111.4750 275° West 411 473 30,000 -49 Descending Albuquerque Center
Tue 12:04:24 AM 35.5294 -111.6125 274° West 411 473 30,000  Level Albuquerque Center
Tue 12:05:25 AM 35.5372 -111.7511 274° West 409 471 30,000  Level Albuquerque Center
Tue 12:06:26 AM 35.5447 -111.8897 274° West 409 471 30,000  Level Albuquerque Center
Tue 12:07:27 AM 35.5519 -112.0272 274° West 408 470 30,000  Level Albuquerque Center
Tue 12:08:28 AM 35.5586 -112.1572 274° West 393 452 30,000  Level Albuquerque Center
Tue 12:09:29 AM 35.5653 -112.2861 274° West 383 441 30,000  Level Albuquerque Center
Tue 12:10:29 AM 35.5725 -112.4158 274° West 384 442 30,000  Level Albuquerque Center
Tue 12:10:51 AM 35.5753 -112.4697 274° West 387 445 30,000  Level Los Angeles Center
Tue 12:11:53 AM 35.5825 -112.6003 274° West 387 445 30,000  Level Los Angeles Center
Tue 12:12:54 AM 35.5897 -112.7444 274° West 387 445 30,000  Level Los Angeles Center
Tue 12:13:55 AM 35.5953 -112.8764 273° West 387 445 30,000  Level Los Angeles Center
Tue 12:14:57 AM 35.6011 -113.0083 273° West 387 445 30,000  Level Los Angeles Center
Tue 12:15:58 AM 35.6078 -113.1408 274° West 386 444 30,000  Level Los Angeles Center
Tue 12:16:59 AM 35.6133 -113.2775 273° West 389 448 30,000 -246 Level Los Angeles Center
Tue 12:18:00 AM 35.6192 -113.4100 273° West 392 451 29,500 -1,512 Descending Los Angeles Center
Tue 12:19:02 AM 35.6264 -113.5650 273° West 387 445 26,900 -2,585 Descending Los Angeles Center
Tue 12:20:03 AM 35.6431 -113.6853 280° West 374 430 24,200 -2,585 Descending Los Angeles Center
Tue 12:21:05 AM 35.6617 -113.8019 281° West 361 415 21,600 -2,508 Descending Los Angeles Center
Tue 12:22:05 AM 35.6781 -113.9164 280° West 351 404 19,100 -1,240 Descending Los Angeles Center
Tue 12:23:06 AM 35.6933 -114.0253 280° West 338 389 19,100 -1,268 Level Los Angeles Center
Tue 12:24:08 AM 35.7089 -114.1347 280° West 331 381 16,500 -2,390 Descending Los Angeles Center
Tue 12:25:09 AM 35.7233 -114.2461 279° West 323 372 14,200 -2,115 Descending Los Angeles Center
Tue 12:26:10 AM 35.7375 -114.3514 279° West 316 364 12,200 -1,435 Descending Los Angeles Center
Tue 12:26:41 AM 35.7739 -114.3972 314° West 296 341 12,000 -197 Descending Los Angeles Center
Tue 12:27:11 AM 35.8147 -114.4153 340° North 302 348 12,000  Level Los Angeles Center
Tue 12:27:42 AM 35.8508 -114.4322 339° North 296 341 12,000  Level Los Angeles Center
Tue 12:28:13 AM 35.8889 -114.4503 339° North 290 334 12,000 -333 Level Los Angeles Center
Tue 12:28:36 AM 35.9169 -114.4658 336° Northwest 286 329 11,700 -1,279 Descending Los Angeles Center
Tue 12:29:14 AM 35.9614 -114.4839 342° North 283 326 10,700 -1,377 Descending Los Angeles Center
Tue 12:29:37 AM 35.9914 -114.4992 338° Northwest 275 316 10,300 -689 Descending Los Angeles Center
Tue 12:30:15 AM 36.0311 -114.5175 340° North 274 315 10,000 -295 Descending Los Angeles Center
Tue 12:30:38 AM 36.0433 -114.5481 296° West 239 275 10,000  Level Los Angeles Center
Tue 12:31:16 AM 36.0511 -114.5931 282° West 244 281 10,000 -500 Level Los Angeles Center
Tue 12:31:38 AM 36.0569 -114.6289 281° West 231 266 9,500 -1,082 Descending Los Angeles Center
Tue 12:32:17 AM 36.0639 -114.6692 282° West 230 265 8,900 -1,082 Descending Los Angeles Center
Tue 12:32:39 AM 36.0694 -114.7044 281° West 227 261 8,400 -871 Descending Los Angeles Center
Tue 12:33:19 AM 36.0756 -114.7444 281° West 226 260 8,000 -873 Descending Los Angeles Center
Tue 12:33:34 AM 36.0742 -114.7747 267° West 223 257 7,600 -1,082 Descending Los Angeles Center
Tue 12:34:20 AM 36.0758 -114.8206 273° West 222 255 6,900 -911 Descending Los Angeles Center
Tue 12:34:53 AM 36.0744 -114.8733 268° West 221 254 6,400 -984 Descending Los Angeles Center
Tue 12:35:21 AM 36.0747 -114.8972 271° West 222 255 5,900 -1,400 Descending Los Angeles Center
Tue 12:35:53 AM 36.0733 -114.9481 268° West 211 243 5,000 -1,279 Descending Los Angeles Center
Tue 12:36:22 AM 36.0733 -114.9692 270° West 218 251 4,600 -1,102 Descending Los Angeles Center
Tue 12:36:42 AM 36.0736 -114.9986 271° West 175 201 4,100 -984 Descending Los Angeles Center
Tue 12:37:23 AM 36.0742 -115.0261 271° West 193 222 3,600 -757 Descending Los Angeles Center
Tue 12:38:25 AM 36.0742 -115.0783 270° West 155 178 2,800 -683 Descending Los Angeles Center
Tue 12:39:26 AM 36.0739 -115.1178 270° West 132 152 2,200 -590 Descending Los Angeles Center
Tue 12:41:00 AM 36.0667 -115.1500 270° West  Level FlightAware Approximate

Login

Don't have an account? Register now (free) for customized features, flight alerts, and more!